sensor_id;sensor_type;location;lat;lon;timestamp;P1;durP1;ratioP1;P2;durP2;ratioP2
70818;SDS011;58439;51.046;13.692;2023-03-01T00:01:30;55.33;;;24.70;;
70818;SDS011;58439;51.046;13.692;2023-03-01T00:03:58;57.15;;;25.73;;
70818;SDS011;58439;51.046;13.692;2023-03-01T00:06:26;53.58;;;25.20;;
70818;SDS011;58439;51.046;13.692;2023-03-01T00:08:55;62.28;;;27.15;;
70818;SDS011;58439;51.046;13.692;2023-03-01T00:11:23;57.17;;;27.02;;
70818;SDS011;58439;51.046;13.692;2023-03-01T00:13:54;58.20;;;25.40;;
70818;SDS011;58439;51.046;13.692;2023-03-01T00:16:26;56.13;;;25.45;;
70818;SDS011;58439;51.046;13.692;2023-03-01T00:19:07;59.60;;;25.85;;
70818;SDS011;58439;51.046;13.692;2023-03-01T00:21:41;56.70;;;24.33;;
70818;SDS011;58439;51.046;13.692;2023-03-01T00:24:09;50.97;;;22.30;;
70818;SDS011;58439;51.046;13.692;2023-03-01T00:26:37;47.50;;;23.20;;
70818;SDS011;58439;51.046;13.692;2023-03-01T00:29:04;47.03;;;23.95;;
70818;SDS011;58439;51.046;13.692;2023-03-01T00:31:32;54.60;;;24.13;;
70818;SDS011;58439;51.046;13.692;2023-03-01T00:34:12;53.43;;;24.10;;
70818;SDS011;58439;51.046;13.692;2023-03-01T00:37:14;50.65;;;23.58;;
70818;SDS011;58439;51.046;13.692;2023-03-01T00:40:12;53.90;;;24.08;;
70818;SDS011;58439;51.046;13.692;2023-03-01T00:43:57;51.45;;;23.65;;
70818;SDS011;58439;51.046;13.692;2023-03-01T00:46:25;54.13;;;23.52;;
70818;SDS011;58439;51.046;13.692;2023-03-01T00:48:53;51.42;;;24.05;;
70818;SDS011;58439;51.046;13.692;2023-03-01T00:51:22;53.08;;;24.02;;
70818;SDS011;58439;51.046;13.692;2023-03-01T00:53:52;50.75;;;23.55;;
70818;SDS011;58439;51.046;13.692;2023-03-01T00:56:36;45.35;;;22.08;;
70818;SDS011;58439;51.046;13.692;2023-03-01T00:59:03;48.38;;;22.77;;
70818;SDS011;58439;51.046;13.692;2023-03-01T01:01:30;47.83;;;23.15;;
70818;SDS011;58439;51.046;13.692;2023-03-01T01:04:10;56.28;;;25.05;;
70818;SDS011;58439;51.046;13.692;2023-03-01T01:06:46;50.00;;;21.83;;
70818;SDS011;58439;51.046;13.692;2023-03-01T01:09:14;51.47;;;23.75;;
70818;SDS011;58439;51.046;13.692;2023-03-01T01:12:13;55.45;;;24.05;;
70818;SDS011;58439;51.046;13.692;2023-03-01T01:14:40;54.60;;;24.58;;
70818;SDS011;58439;51.046;13.692;2023-03-01T01:17:08;63.90;;;26.55;;
70818;SDS011;58439;51.046;13.692;2023-03-01T01:19:36;61.70;;;25.60;;
70818;SDS011;58439;51.046;13.692;2023-03-01T01:22:03;52.83;;;25.58;;
70818;SDS011;58439;51.046;13.692;2023-03-01T01:24:31;58.97;;;26.08;;
70818;SDS011;58439;51.046;13.692;2023-03-01T01:26:59;57.42;;;26.48;;
70818;SDS011;58439;51.046;13.692;2023-03-01T01:29:26;58.53;;;25.70;;
70818;SDS011;58439;51.046;13.692;2023-03-01T01:31:54;60.28;;;24.50;;
70818;SDS011;58439;51.046;13.692;2023-03-01T01:34:22;61.17;;;25.63;;
70818;SDS011;58439;51.046;13.692;2023-03-01T01:36:50;66.88;;;28.83;;
70818;SDS011;58439;51.046;13.692;2023-03-01T01:39:20;55.53;;;24.58;;
70818;SDS011;58439;51.046;13.692;2023-03-01T01:41:49;56.83;;;25.63;;
70818;SDS011;58439;51.046;13.692;2023-03-01T01:44:26;57.10;;;26.65;;
70818;SDS011;58439;51.046;13.692;2023-03-01T01:46:57;56.22;;;25.42;;
70818;SDS011;58439;51.046;13.692;2023-03-01T01:49:32;58.92;;;26.05;;
70818;SDS011;58439;51.046;13.692;2023-03-01T01:57:44;62.67;;;25.10;;
70818;SDS011;58439;51.046;13.692;2023-03-01T02:00:17;63.67;;;27.00;;
70818;SDS011;58439;51.046;13.692;2023-03-01T02:02:54;63.60;;;26.52;;
70818;SDS011;58439;51.046;13.692;2023-03-01T02:05:35;64.97;;;27.05;;
70818;SDS011;58439;51.046;13.692;2023-03-01T02:08:30;65.32;;;27.23;;
70818;SDS011;58439;51.046;13.692;2023-03-01T02:11:01;63.00;;;26.95;;
70818;SDS011;58439;51.046;13.692;2023-03-01T02:13:31;60.75;;;25.70;;
70818;SDS011;58439;51.046;13.692;2023-03-01T02:16:07;65.47;;;24.45;;
70818;SDS011;58439;51.046;13.692;2023-03-01T02:18:53;55.70;;;24.65;;
70818;SDS011;58439;51.046;13.692;2023-03-01T02:24:40;58.58;;;26.45;;
70818;SDS011;58439;51.046;13.692;2023-03-01T02:27:56;52.20;;;24.95;;
70818;SDS011;58439;51.046;13.692;2023-03-01T02:31:02;53.00;;;23.50;;
70818;SDS011;58439;51.046;13.692;2023-03-01T02:33:53;55.53;;;24.27;;
70818;SDS011;58439;51.046;13.692;2023-03-01T02:36:22;55.88;;;24.30;;
70818;SDS011;58439;51.046;13.692;2023-03-01T02:38:58;55.03;;;25.17;;
70818;SDS011;58439;51.046;13.692;2023-03-01T02:41:38;53.75;;;23.73;;
70818;SDS011;58439;51.046;13.692;2023-03-01T02:44:09;52.95;;;23.42;;
70818;SDS011;58439;51.046;13.692;2023-03-01T02:46:42;58.50;;;23.80;;
70818;SDS011;58439;51.046;13.692;2023-03-01T02:55:10;59.65;;;26.17;;
70818;SDS011;58439;51.046;13.692;2023-03-01T02:57:45;57.85;;;25.83;;
70818;SDS011;58439;51.046;13.692;2023-03-01T03:00:21;55.53;;;24.92;;
70818;SDS011;58439;51.046;13.692;2023-03-01T03:02:56;62.35;;;26.98;;
70818;SDS011;58439;51.046;13.692;2023-03-01T03:05:25;59.35;;;24.92;;
70818;SDS011;58439;51.046;13.692;2023-03-01T03:07:57;65.72;;;25.75;;
70818;SDS011;58439;51.046;13.692;2023-03-01T03:10:34;53.38;;;24.42;;
70818;SDS011;58439;51.046;13.692;2023-03-01T03:13:13;63.20;;;25.45;;
70818;SDS011;58439;51.046;13.692;2023-03-01T03:15:42;56.25;;;25.35;;
70818;SDS011;58439;51.046;13.692;2023-03-01T03:18:11;63.00;;;23.17;;
70818;SDS011;58439;51.046;13.692;2023-03-01T03:20:42;59.88;;;22.98;;
70818;SDS011;58439;51.046;13.692;2023-03-01T03:23:12;58.92;;;24.40;;
70818;SDS011;58439;51.046;13.692;2023-03-01T03:25:39;63.60;;;27.05;;
70818;SDS011;58439;51.046;13.692;2023-03-01T03:28:06;54.05;;;25.38;;
70818;SDS011;58439;51.046;13.692;2023-03-01T03:30:38;55.88;;;25.45;;
70818;SDS011;58439;51.046;13.692;2023-03-01T03:33:10;65.72;;;26.85;;
70818;SDS011;58439;51.046;13.692;2023-03-01T03:35:41;58.00;;;24.92;;
70818;SDS011;58439;51.046;13.692;2023-03-01T03:38:12;55.70;;;26.27;;
70818;SDS011;58439;51.046;13.692;2023-03-01T03:40:45;55.83;;;24.48;;
70818;SDS011;58439;51.046;13.692;2023-03-01T03:43:21;57.00;;;25.90;;
70818;SDS011;58439;51.046;13.692;2023-03-01T03:45:50;53.30;;;24.48;;
70818;SDS011;58439;51.046;13.692;2023-03-01T03:48:18;61.15;;;25.52;;
70818;SDS011;58439;51.046;13.692;2023-03-01T03:50:47;63.47;;;25.52;;
70818;SDS011;58439;51.046;13.692;2023-03-01T03:53:34;62.50;;;25.38;;
70818;SDS011;58439;51.046;13.692;2023-03-01T03:56:01;60.17;;;26.05;;
70818;SDS011;58439;51.046;13.692;2023-03-01T03:58:31;60.58;;;25.83;;
70818;SDS011;58439;51.046;13.692;2023-03-01T04:00:59;64.07;;;27.27;;
70818;SDS011;58439;51.046;13.692;2023-03-01T04:03:27;65.95;;;27.60;;
70818;SDS011;58439;51.046;13.692;2023-03-01T04:06:04;62.97;;;27.65;;
70818;SDS011;58439;51.046;13.692;2023-03-01T04:08:32;56.38;;;25.85;;
70818;SDS011;58439;51.046;13.692;2023-03-01T04:11:00;60.03;;;26.65;;
70818;SDS011;58439;51.046;13.692;2023-03-01T04:13:51;55.22;;;25.00;;
70818;SDS011;58439;51.046;13.692;2023-03-01T04:16:25;57.50;;;24.60;;
70818;SDS011;58439;51.046;13.692;2023-03-01T04:18:52;49.03;;;24.05;;
70818;SDS011;58439;51.046;13.692;2023-03-01T04:21:20;57.28;;;24.73;;
70818;SDS011;58439;51.046;13.692;2023-03-01T04:23:49;63.30;;;26.13;;
70818;SDS011;58439;51.046;13.692;2023-03-01T04:26:19;58.13;;;25.55;;
70818;SDS011;58439;51.046;13.692;2023-03-01T04:28:46;59.17;;;27.60;;
70818;SDS011;58439;51.046;13.692;2023-03-01T04:31:16;56.88;;;26.45;;
70818;SDS011;58439;51.046;13.692;2023-03-01T04:33:53;61.97;;;27.83;;
70818;SDS011;58439;51.046;13.692;2023-03-01T04:36:24;59.05;;;25.75;;
70818;SDS011;58439;51.046;13.692;2023-03-01T04:38:54;59.07;;;25.77;;
70818;SDS011;58439;51.046;13.692;2023-03-01T04:41:25;56.70;;;25.10;;
70818;SDS011;58439;51.046;13.692;2023-03-01T04:44:07;62.55;;;26.65;;
70818;SDS011;58439;51.046;13.692;2023-03-01T04:46:49;59.72;;;25.08;;
70818;SDS011;58439;51.046;13.692;2023-03-01T04:50:00;66.50;;;26.50;;
70818;SDS011;58439;51.046;13.692;2023-03-01T04:52:37;66.25;;;26.60;;
70818;SDS011;58439;51.046;13.692;2023-03-01T04:55:44;58.38;;;25.77;;
70818;SDS011;58439;51.046;13.692;2023-03-01T04:58:14;64.32;;;27.30;;
70818;SDS011;58439;51.046;13.692;2023-03-01T05:00:42;51.88;;;24.17;;
70818;SDS011;58439;51.046;13.692;2023-03-01T05:03:09;55.65;;;25.33;;
70818;SDS011;58439;51.046;13.692;2023-03-01T05:05:37;60.35;;;26.65;;
70818;SDS011;58439;51.046;13.692;2023-03-01T05:08:17;56.22;;;24.30;;
70818;SDS011;58439;51.046;13.692;2023-03-01T05:10:53;57.40;;;25.50;;
70818;SDS011;58439;51.046;13.692;2023-03-01T05:16:42;59.08;;;26.27;;
70818;SDS011;58439;51.046;13.692;2023-03-01T05:19:10;63.20;;;26.92;;
70818;SDS011;58439;51.046;13.692;2023-03-01T05:21:42;55.92;;;25.02;;
70818;SDS011;58439;51.046;13.692;2023-03-01T05:24:29;61.30;;;25.98;;
70818;SDS011;58439;51.046;13.692;2023-03-01T05:26:59;64.82;;;25.75;;
70818;SDS011;58439;51.046;13.692;2023-03-01T05:29:28;53.92;;;24.05;;
70818;SDS011;58439;51.046;13.692;2023-03-01T05:34:31;58.67;;;24.83;;
70818;SDS011;58439;51.046;13.692;2023-03-01T05:37:02;60.65;;;25.77;;
70818;SDS011;58439;51.046;13.692;2023-03-01T05:39:29;63.85;;;26.63;;
70818;SDS011;58439;51.046;13.692;2023-03-01T05:41:59;57.00;;;26.35;;
70818;SDS011;58439;51.046;13.692;2023-03-01T05:44:28;71.05;;;29.38;;
70818;SDS011;58439;51.046;13.692;2023-03-01T05:46:57;69.00;;;29.35;;
70818;SDS011;58439;51.046;13.692;2023-03-01T05:49:25;74.10;;;29.63;;
70818;SDS011;58439;51.046;13.692;2023-03-01T05:51:52;65.57;;;29.58;;
70818;SDS011;58439;51.046;13.692;2023-03-01T05:54:20;73.63;;;29.52;;
70818;SDS011;58439;51.046;13.692;2023-03-01T05:56:48;75.05;;;31.08;;
70818;SDS011;58439;51.046;13.692;2023-03-01T05:59:16;79.80;;;33.75;;
70818;SDS011;58439;51.046;13.692;2023-03-01T06:01:46;85.28;;;31.65;;
70818;SDS011;58439;51.046;13.692;2023-03-01T06:04:13;72.55;;;31.73;;
70818;SDS011;58439;51.046;13.692;2023-03-01T06:06:44;73.07;;;30.08;;
70818;SDS011;58439;51.046;13.692;2023-03-01T06:10:23;70.97;;;29.38;;
70818;SDS011;58439;51.046;13.692;2023-03-01T06:12:50;71.25;;;30.05;;
70818;SDS011;58439;51.046;13.692;2023-03-01T06:15:18;67.75;;;29.10;;
70818;SDS011;58439;51.046;13.692;2023-03-01T06:17:45;72.32;;;29.45;;
70818;SDS011;58439;51.046;13.692;2023-03-01T06:21:01;72.07;;;30.70;;
70818;SDS011;58439;51.046;13.692;2023-03-01T06:26:21;67.68;;;27.67;;
70818;SDS011;58439;51.046;13.692;2023-03-01T06:28:52;64.47;;;28.15;;
70818;SDS011;58439;51.046;13.692;2023-03-01T06:31:20;71.22;;;30.80;;
70818;SDS011;58439;51.046;13.692;2023-03-01T06:33:47;70.97;;;28.75;;
70818;SDS011;58439;51.046;13.692;2023-03-01T06:36:14;58.90;;;26.67;;
70818;SDS011;58439;51.046;13.692;2023-03-01T06:38:46;65.22;;;27.25;;
70818;SDS011;58439;51.046;13.692;2023-03-01T06:41:33;65.15;;;28.15;;
70818;SDS011;58439;51.046;13.692;2023-03-01T06:44:00;62.97;;;26.77;;
70818;SDS011;58439;51.046;13.692;2023-03-01T06:46:53;64.03;;;28.23;;
70818;SDS011;58439;51.046;13.692;2023-03-01T06:49:24;64.25;;;26.08;;
70818;SDS011;58439;51.046;13.692;2023-03-01T06:52:22;69.57;;;27.60;;
70818;SDS011;58439;51.046;13.692;2023-03-01T06:55:41;62.45;;;26.67;;
70818;SDS011;58439;51.046;13.692;2023-03-01T06:58:08;58.00;;;25.25;;
70818;SDS011;58439;51.046;13.692;2023-03-01T07:00:36;56.65;;;25.83;;
70818;SDS011;58439;51.046;13.692;2023-03-01T07:09:39;57.25;;;23.55;;
70818;SDS011;58439;51.046;13.692;2023-03-01T07:12:07;63.40;;;26.83;;
70818;SDS011;58439;51.046;13.692;2023-03-01T07:15:22;58.40;;;26.40;;
70818;SDS011;58439;51.046;13.692;2023-03-01T07:17:50;56.13;;;25.88;;
70818;SDS011;58439;51.046;13.692;2023-03-01T07:20:24;64.60;;;26.92;;
70818;SDS011;58439;51.046;13.692;2023-03-01T07:22:52;64.68;;;26.38;;
70818;SDS011;58439;51.046;13.692;2023-03-01T07:25:21;68.50;;;29.05;;
70818;SDS011;58439;51.046;13.692;2023-03-01T07:27:49;62.97;;;26.63;;
70818;SDS011;58439;51.046;13.692;2023-03-01T07:34:01;70.70;;;26.50;;
70818;SDS011;58439;51.046;13.692;2023-03-01T07:36:29;61.90;;;26.80;;
70818;SDS011;58439;51.046;13.692;2023-03-01T07:39:09;65.22;;;26.80;;
70818;SDS011;58439;51.046;13.692;2023-03-01T07:41:40;64.25;;;26.70;;
70818;SDS011;58439;51.046;13.692;2023-03-01T07:44:07;62.97;;;26.50;;
70818;SDS011;58439;51.046;13.692;2023-03-01T07:46:37;63.78;;;27.13;;
70818;SDS011;58439;51.046;13.692;2023-03-01T07:49:04;63.38;;;27.33;;
70818;SDS011;58439;51.046;13.692;2023-03-01T07:51:31;57.92;;;26.02;;
70818;SDS011;58439;51.046;13.692;2023-03-01T07:53:59;61.55;;;27.10;;
70818;SDS011;58439;51.046;13.692;2023-03-01T07:56:26;59.95;;;26.70;;
70818;SDS011;58439;51.046;13.692;2023-03-01T07:58:54;61.13;;;27.00;;
70818;SDS011;58439;51.046;13.692;2023-03-01T08:01:28;60.08;;;26.30;;
70818;SDS011;58439;51.046;13.692;2023-03-01T08:04:17;64.45;;;25.65;;
70818;SDS011;58439;51.046;13.692;2023-03-01T08:06:44;61.92;;;26.27;;
70818;SDS011;58439;51.046;13.692;2023-03-01T08:09:12;61.83;;;25.77;;
70818;SDS011;58439;51.046;13.692;2023-03-01T08:11:40;70.15;;;27.85;;
70818;SDS011;58439;51.046;13.692;2023-03-01T08:17:12;68.20;;;27.70;;
70818;SDS011;58439;51.046;13.692;2023-03-01T08:24:38;62.45;;;25.80;;
70818;SDS011;58439;51.046;13.692;2023-03-01T08:27:06;62.67;;;27.17;;
70818;SDS011;58439;51.046;13.692;2023-03-01T08:29:33;54.95;;;27.00;;
70818;SDS011;58439;51.046;13.692;2023-03-01T08:32:01;73.75;;;28.75;;
70818;SDS011;58439;51.046;13.692;2023-03-01T08:34:28;60.50;;;26.98;;
70818;SDS011;58439;51.046;13.692;2023-03-01T08:36:57;55.78;;;23.65;;
70818;SDS011;58439;51.046;13.692;2023-03-01T08:39:25;66.55;;;27.67;;
70818;SDS011;58439;51.046;13.692;2023-03-01T08:41:52;77.93;;;30.60;;
70818;SDS011;58439;51.046;13.692;2023-03-01T08:44:19;65.60;;;27.80;;
70818;SDS011;58439;51.046;13.692;2023-03-01T08:46:47;62.85;;;26.65;;
70818;SDS011;58439;51.046;13.692;2023-03-01T08:49:18;67.40;;;27.30;;
70818;SDS011;58439;51.046;13.692;2023-03-01T08:51:47;63.90;;;28.20;;
70818;SDS011;58439;51.046;13.692;2023-03-01T08:54:16;59.75;;;25.23;;
70818;SDS011;58439;51.046;13.692;2023-03-01T08:56:47;60.13;;;25.98;;
70818;SDS011;58439;51.046;13.692;2023-03-01T08:59:15;60.28;;;28.27;;
70818;SDS011;58439;51.046;13.692;2023-03-01T09:01:45;58.67;;;26.63;;
70818;SDS011;58439;51.046;13.692;2023-03-01T09:04:14;56.35;;;25.67;;
70818;SDS011;58439;51.046;13.692;2023-03-01T09:06:42;57.42;;;26.05;;
70818;SDS011;58439;51.046;13.692;2023-03-01T09:09:12;64.47;;;25.88;;
70818;SDS011;58439;51.046;13.692;2023-03-01T09:14:14;63.00;;;26.15;;
70818;SDS011;58439;51.046;13.692;2023-03-01T09:16:41;55.55;;;26.40;;
70818;SDS011;58439;51.046;13.692;2023-03-01T09:19:09;56.83;;;26.08;;
70818;SDS011;58439;51.046;13.692;2023-03-01T09:26:08;57.70;;;26.08;;
70818;SDS011;58439;51.046;13.692;2023-03-01T09:28:47;62.05;;;24.85;;
70818;SDS011;58439;51.046;13.692;2023-03-01T09:31:17;50.58;;;26.00;;
70818;SDS011;58439;51.046;13.692;2023-03-01T09:33:47;57.40;;;25.63;;
70818;SDS011;58439;51.046;13.692;2023-03-01T09:36:20;56.60;;;25.02;;
70818;SDS011;58439;51.046;13.692;2023-03-01T09:38:50;55.63;;;26.10;;
70818;SDS011;58439;51.046;13.692;2023-03-01T09:44:22;55.80;;;22.42;;
70818;SDS011;58439;51.046;13.692;2023-03-01T09:48:27;57.65;;;23.85;;
70818;SDS011;58439;51.046;13.692;2023-03-01T09:51:08;60.85;;;25.23;;
70818;SDS011;58439;51.046;13.692;2023-03-01T09:53:46;52.03;;;24.45;;
70818;SDS011;58439;51.046;13.692;2023-03-01T09:59:43;53.05;;;23.65;;
70818;SDS011;58439;51.046;13.692;2023-03-01T10:02:51;53.65;;;23.65;;
70818;SDS011;58439;51.046;13.692;2023-03-01T10:05:31;55.65;;;23.05;;
70818;SDS011;58439;51.046;13.692;2023-03-01T10:13:33;56.95;;;24.40;;
70818;SDS011;58439;51.046;13.692;2023-03-01T10:16:16;64.32;;;25.42;;
70818;SDS011;58439;51.046;13.692;2023-03-01T10:19:03;69.78;;;27.63;;
70818;SDS011;58439;51.046;13.692;2023-03-01T10:21:36;59.88;;;27.83;;
70818;SDS011;58439;51.046;13.692;2023-03-01T10:24:14;57.00;;;25.45;;
70818;SDS011;58439;51.046;13.692;2023-03-01T10:27:01;61.53;;;25.73;;
70818;SDS011;58439;51.046;13.692;2023-03-01T10:32:46;50.33;;;23.90;;
70818;SDS011;58439;51.046;13.692;2023-03-01T10:35:23;51.80;;;24.70;;
70818;SDS011;58439;51.046;13.692;2023-03-01T10:37:58;52.70;;;23.95;;
70818;SDS011;58439;51.046;13.692;2023-03-01T10:40:35;46.75;;;21.67;;
70818;SDS011;58439;51.046;13.692;2023-03-01T10:45:45;43.03;;;20.95;;
70818;SDS011;58439;51.046;13.692;2023-03-01T10:48:25;58.13;;;24.00;;
70818;SDS011;58439;51.046;13.692;2023-03-01T10:51:07;40.03;;;19.58;;
70818;SDS011;58439;51.046;13.692;2023-03-01T10:53:55;42.05;;;18.35;;
70818;SDS011;58439;51.046;13.692;2023-03-01T10:56:22;43.30;;;20.90;;
70818;SDS011;58439;51.046;13.692;2023-03-01T10:58:59;42.83;;;20.83;;
70818;SDS011;58439;51.046;13.692;2023-03-01T11:01:34;44.83;;;19.88;;
70818;SDS011;58439;51.046;13.692;2023-03-01T11:04:12;39.17;;;16.33;;
70818;SDS011;58439;51.046;13.692;2023-03-01T11:06:40;38.85;;;19.77;;
70818;SDS011;58439;51.046;13.692;2023-03-01T11:09:44;37.63;;;19.25;;
70818;SDS011;58439;51.046;13.692;2023-03-01T11:12:13;37.85;;;18.92;;
70818;SDS011;58439;51.046;13.692;2023-03-01T11:14:51;44.00;;;19.88;;
70818;SDS011;58439;51.046;13.692;2023-03-01T11:17:27;37.83;;;18.95;;
70818;SDS011;58439;51.046;13.692;2023-03-01T11:20:09;40.00;;;20.10;;
70818;SDS011;58439;51.046;13.692;2023-03-01T11:22:50;40.67;;;20.25;;
70818;SDS011;58439;51.046;13.692;2023-03-01T11:25:25;38.53;;;19.45;;
70818;SDS011;58439;51.046;13.692;2023-03-01T11:27:59;38.03;;;17.17;;
70818;SDS011;58439;51.046;13.692;2023-03-01T11:30:32;42.28;;;19.65;;
70818;SDS011;58439;51.046;13.692;2023-03-01T11:35:37;36.47;;;17.08;;
70818;SDS011;58439;51.046;13.692;2023-03-01T11:38:21;34.63;;;17.75;;
70818;SDS011;58439;51.046;13.692;2023-03-01T11:46:56;33.00;;;16.60;;
70818;SDS011;58439;51.046;13.692;2023-03-01T11:50:19;57.80;;;19.33;;
70818;SDS011;58439;51.046;13.692;2023-03-01T11:55:56;27.77;;;14.30;;
70818;SDS011;58439;51.046;13.692;2023-03-01T12:04:53;26.50;;;13.60;;
70818;SDS011;58439;51.046;13.692;2023-03-01T12:43:28;28.38;;;14.93;;
70818;SDS011;58439;51.046;13.692;2023-03-01T12:46:41;23.85;;;11.90;;
70818;SDS011;58439;51.046;13.692;2023-03-01T12:49:38;28.05;;;14.63;;
70818;SDS011;58439;51.046;13.692;2023-03-01T12:52:19;26.20;;;14.57;;
70818;SDS011;58439;51.046;13.692;2023-03-01T13:10:07;28.60;;;15.18;;
70818;SDS011;58439;51.046;13.692;2023-03-01T13:13:01;35.53;;;17.25;;
70818;SDS011;58439;51.046;13.692;2023-03-01T13:15:35;33.92;;;16.70;;
70818;SDS011;58439;51.046;13.692;2023-03-01T13:23:26;25.85;;;15.55;;
70818;SDS011;58439;51.046;13.692;2023-03-01T13:37:48;30.83;;;14.90;;
70818;SDS011;58439;51.046;13.692;2023-03-01T13:42:46;40.17;;;17.92;;
70818;SDS011;58439;51.046;13.692;2023-03-01T13:45:39;29.27;;;15.30;;
70818;SDS011;58439;51.046;13.692;2023-03-01T13:48:23;33.17;;;16.10;;
70818;SDS011;58439;51.046;13.692;2023-03-01T13:50:58;26.70;;;13.77;;
70818;SDS011;58439;51.046;13.692;2023-03-01T13:53:31;44.15;;;15.98;;
70818;SDS011;58439;51.046;13.692;2023-03-01T13:56:09;23.98;;;14.73;;
70818;SDS011;58439;51.046;13.692;2023-03-01T13:59:04;32.70;;;15.88;;
70818;SDS011;58439;51.046;13.692;2023-03-01T14:01:34;36.33;;;15.30;;
70818;SDS011;58439;51.046;13.692;2023-03-01T14:04:03;31.65;;;15.77;;
70818;SDS011;58439;51.046;13.692;2023-03-01T14:06:47;30.15;;;14.43;;
70818;SDS011;58439;51.046;13.692;2023-03-01T14:09:16;28.17;;;14.60;;
70818;SDS011;58439;51.046;13.692;2023-03-01T14:12:03;28.50;;;15.25;;
70818;SDS011;58439;51.046;13.692;2023-03-01T14:20:42;28.75;;;14.50;;
70818;SDS011;58439;51.046;13.692;2023-03-01T14:23:18;24.15;;;15.02;;
70818;SDS011;58439;51.046;13.692;2023-03-01T14:25:50;33.17;;;15.65;;
70818;SDS011;58439;51.046;13.692;2023-03-01T14:28:28;35.65;;;16.98;;
70818;SDS011;58439;51.046;13.692;2023-03-01T14:30:58;29.27;;;16.05;;
70818;SDS011;58439;51.046;13.692;2023-03-01T14:36:04;31.17;;;16.17;;
70818;SDS011;58439;51.046;13.692;2023-03-01T14:38:40;27.88;;;15.80;;
70818;SDS011;58439;51.046;13.692;2023-03-01T14:41:10;30.83;;;16.27;;
70818;SDS011;58439;51.046;13.692;2023-03-01T14:45:31;35.90;;;17.08;;
70818;SDS011;58439;51.046;13.692;2023-03-01T14:48:28;29.35;;;14.90;;
70818;SDS011;58439;51.046;13.692;2023-03-01T14:50:57;29.38;;;16.17;;
70818;SDS011;58439;51.046;13.692;2023-03-01T14:53:27;28.60;;;15.35;;
70818;SDS011;58439;51.046;13.692;2023-03-01T14:56:03;38.45;;;18.55;;
70818;SDS011;58439;51.046;13.692;2023-03-01T14:58:31;35.80;;;17.08;;
70818;SDS011;58439;51.046;13.692;2023-03-01T15:01:01;27.77;;;15.45;;
70818;SDS011;58439;51.046;13.692;2023-03-01T15:03:42;34.92;;;15.77;;
70818;SDS011;58439;51.046;13.692;2023-03-01T15:06:20;28.70;;;15.73;;
70818;SDS011;58439;51.046;13.692;2023-03-01T15:08:53;28.40;;;15.13;;
70818;SDS011;58439;51.046;13.692;2023-03-01T15:11:24;33.28;;;16.38;;
70818;SDS011;58439;51.046;13.692;2023-03-01T15:13:58;29.13;;;15.77;;
70818;SDS011;58439;51.046;13.692;2023-03-01T15:16:26;32.78;;;16.15;;
70818;SDS011;58439;51.046;13.692;2023-03-01T15:19:01;30.25;;;16.90;;
70818;SDS011;58439;51.046;13.692;2023-03-01T15:24:06;38.27;;;16.03;;
70818;SDS011;58439;51.046;13.692;2023-03-01T15:26:53;30.52;;;16.02;;
70818;SDS011;58439;51.046;13.692;2023-03-01T15:29:33;35.88;;;16.38;;
70818;SDS011;58439;51.046;13.692;2023-03-01T15:32:29;31.27;;;15.15;;
70818;SDS011;58439;51.046;13.692;2023-03-01T15:35:32;36.05;;;15.90;;
70818;SDS011;58439;51.046;13.692;2023-03-01T15:38:27;32.63;;;14.93;;
70818;SDS011;58439;51.046;13.692;2023-03-01T15:41:59;34.85;;;15.18;;
70818;SDS011;58439;51.046;13.692;2023-03-01T15:44:25;40.25;;;16.38;;
70818;SDS011;58439;51.046;13.692;2023-03-01T15:49:53;34.33;;;15.55;;
70818;SDS011;58439;51.046;13.692;2023-03-01T15:52:23;27.17;;;13.77;;
70818;SDS011;58439;51.046;13.692;2023-03-01T15:54:59;77.60;;;20.40;;
70818;SDS011;58439;51.046;13.692;2023-03-01T15:57:30;32.30;;;15.40;;
70818;SDS011;58439;51.046;13.692;2023-03-01T15:59:57;32.25;;;15.48;;
70818;SDS011;58439;51.046;13.692;2023-03-01T16:05:50;34.38;;;16.08;;
70818;SDS011;58439;51.046;13.692;2023-03-01T16:08:18;37.65;;;14.90;;
70818;SDS011;58439;51.046;13.692;2023-03-01T16:10:46;26.95;;;13.75;;
70818;SDS011;58439;51.046;13.692;2023-03-01T16:13:16;32.30;;;15.73;;
70818;SDS011;58439;51.046;13.692;2023-03-01T16:15:44;30.75;;;14.77;;
70818;SDS011;58439;51.046;13.692;2023-03-01T16:18:15;39.50;;;15.38;;
70818;SDS011;58439;51.046;13.692;2023-03-01T16:20:42;29.60;;;15.20;;
70818;SDS011;58439;51.046;13.692;2023-03-01T16:23:10;31.20;;;14.77;;
70818;SDS011;58439;51.046;13.692;2023-03-01T16:25:38;36.47;;;15.93;;
70818;SDS011;58439;51.046;13.692;2023-03-01T16:28:05;40.25;;;16.67;;
70818;SDS011;58439;51.046;13.692;2023-03-01T16:30:37;41.38;;;15.90;;
70818;SDS011;58439;51.046;13.692;2023-03-01T16:33:06;38.65;;;16.67;;
70818;SDS011;58439;51.046;13.692;2023-03-01T16:35:54;32.75;;;15.18;;
70818;SDS011;58439;51.046;13.692;2023-03-01T16:38:22;46.25;;;17.08;;
70818;SDS011;58439;51.046;13.692;2023-03-01T16:40:50;45.40;;;16.58;;
70818;SDS011;58439;51.046;13.692;2023-03-01T16:43:18;37.42;;;16.58;;
70818;SDS011;58439;51.046;13.692;2023-03-01T16:45:46;38.33;;;15.35;;
70818;SDS011;58439;51.046;13.692;2023-03-01T16:48:14;41.67;;;17.20;;
70818;SDS011;58439;51.046;13.692;2023-03-01T16:50:42;44.35;;;17.02;;
70818;SDS011;58439;51.046;13.692;2023-03-01T16:53:09;44.67;;;16.98;;
70818;SDS011;58439;51.046;13.692;2023-03-01T16:55:37;62.83;;;18.42;;
70818;SDS011;58439;51.046;13.692;2023-03-01T16:58:11;53.20;;;16.90;;
70818;SDS011;58439;51.046;13.692;2023-03-01T17:00:38;50.88;;;18.67;;
70818;SDS011;58439;51.046;13.692;2023-03-01T17:03:06;46.63;;;17.58;;
70818;SDS011;58439;51.046;13.692;2023-03-01T17:10:18;47.28;;;17.27;;
70818;SDS011;58439;51.046;13.692;2023-03-01T17:16:24;43.22;;;16.27;;
70818;SDS011;58439;51.046;13.692;2023-03-01T17:19:02;48.65;;;17.38;;
70818;SDS011;58439;51.046;13.692;2023-03-01T17:28:08;38.55;;;15.85;;
70818;SDS011;58439;51.046;13.692;2023-03-01T17:38:12;36.53;;;17.45;;
70818;SDS011;58439;51.046;13.692;2023-03-01T17:51:44;51.92;;;24.30;;
70818;SDS011;58439;51.046;13.692;2023-03-01T17:54:15;66.00;;;27.92;;
70818;SDS011;58439;51.046;13.692;2023-03-01T17:56:42;57.83;;;25.80;;
70818;SDS011;58439;51.046;13.692;2023-03-01T18:14:15;67.05;;;29.60;;
70818;SDS011;58439;51.046;13.692;2023-03-01T18:16:42;70.07;;;30.35;;
70818;SDS011;58439;51.046;13.692;2023-03-01T18:19:10;64.78;;;30.98;;
70818;SDS011;58439;51.046;13.692;2023-03-01T18:21:38;73.70;;;32.15;;
70818;SDS011;58439;51.046;13.692;2023-03-01T18:24:06;89.78;;;39.05;;
70818;SDS011;58439;51.046;13.692;2023-03-01T18:26:34;95.85;;;40.20;;
70818;SDS011;58439;51.046;13.692;2023-03-01T18:29:01;93.88;;;39.28;;
70818;SDS011;58439;51.046;13.692;2023-03-01T18:31:30;87.65;;;37.90;;
70818;SDS011;58439;51.046;13.692;2023-03-01T18:33:59;104.40;;;39.67;;
70818;SDS011;58439;51.046;13.692;2023-03-01T18:36:27;86.10;;;37.63;;